Station History


Daily Summary for March 12, 2012 Units:  English    Metric   Both
« Previous Day
Next Day »
Daily Weekly Monthly Yearly Custom
  High: Low: Average:
Temperature: 73.9 °F 39.1 °F 55.2 °F
Dew Point: 48.2 °F 37.0 °F 42.3 °F
Humidity: 94% 32% 66%
Wind Speed: 5.0mph 0.0mph 1.7mph
Wind Gust: 5.0mph - -
Wind- - SW
Pressure: 30.05 in 29.93 in -
Precipitation: 0.00 in    
Historical Graphs
 
 
Tabular Data for March 12, 2012
Time Temperature Dew Point Pressure Wind Wind Speed Wind Gust Humidity Rainfall Rate (Hourly)
00:03 46.9 °F 41.7 °F 29.99 in Calm     82% 0.00 in
00:08 46.7 °F 41.5 °F 29.99 in Calm     82% 0.00 in
00:13 46.4 °F 41.2 °F 29.99 in Calm     82% 0.00 in
00:18 46.2 °F 41.3 °F 29.99 in Calm     83% 0.00 in
00:23 46.1 °F 41.8 °F 29.99 in Calm     85% 0.00 in
00:28 46.1 °F 41.8 °F 30.00 in Calm     85% 0.00 in
00:33 46.1 °F 41.5 °F 29.99 in Calm     84% 0.00 in
00:38 45.9 °F 41.3 °F 29.99 in Calm     84% 0.00 in
00:43 45.7 °F 41.1 °F 29.99 in Calm     84% 0.00 in
00:48 45.5 °F 41.3 °F 29.99 in Calm     85% 0.00 in
00:54 45.2 °F 41.0 °F 29.99 in Calm     85% 0.00 in
00:59 45.1 °F 40.9 °F 29.99 in Calm     85% 0.00 in
01:04 44.8 °F 40.6 °F 29.99 in Calm     85% 0.00 in
01:09 44.7 °F 40.5 °F 29.99 in Calm     85% 0.00 in
01:14 44.4 °F 40.5 °F 29.99 in Calm     86% 0.00 in
01:19 44.6 °F 41.3 °F 30.00 in Calm     88% 0.00 in
01:24 44.6 °F 41.0 °F 30.00 in Calm     87% 0.00 in
01:29 44.5 °F 40.9 °F 30.00 in Calm     87% 0.00 in
01:34 44.3 °F 40.7 °F 30.00 in Calm     87% 0.00 in
01:39 44.1 °F 40.2 °F 30.00 in Calm     86% 0.00 in
01:44 44.1 °F 40.8 °F 30.00 in Calm     88% 0.00 in
01:49 44.2 °F 40.9 °F 30.00 in Calm     88% 0.00 in
01:54 44.1 °F 40.8 °F 30.00 in Calm     88% 0.00 in
01:59 44.1 °F 40.8 °F 30.00 in Calm     88% 0.00 in
02:04 44.0 °F 40.7 °F 30.00 in Calm     88% 0.00 in
02:09 43.9 °F 40.6 °F 30.00 in Calm     88% 0.00 in
02:14 43.6 °F 40.3 °F 30.00 in Calm     88% 0.00 in
02:19 43.5 °F 40.2 °F 30.00 in Calm     88% 0.00 in
02:24 43.3 °F 40.0 °F 30.00 in Calm     88% 0.00 in
02:29 43.1 °F 39.8 °F 30.00 in Calm     88% 0.00 in
02:34 42.8 °F 39.5 °F 30.00 in Calm     88% 0.00 in
02:39 42.6 °F 39.3 °F 30.00 in Calm     88% 0.00 in
02:44 42.5 °F 39.2 °F 30.00 in Calm     88% 0.00 in
02:49 42.4 °F 39.4 °F 30.00 in Calm     89% 0.00 in
02:54 42.5 °F 39.8 °F 29.99 in Calm     90% 0.00 in
02:59 42.5 °F 39.8 °F 29.99 in Calm     90% 0.00 in
03:04 42.6 °F 39.9 °F 29.99 in Calm     90% 0.00 in
03:09 42.5 °F 39.8 °F 29.99 in Calm     90% 0.00 in
03:14 42.3 °F 39.6 °F 29.99 in Calm     90% 0.00 in
03:19 42.2 °F 39.5 °F 29.99 in Calm     90% 0.00 in
03:24 42.3 °F 39.6 °F 29.99 in Calm     90% 0.00 in
03:29 42.1 °F 39.4 °F 29.99 in Calm     90% 0.00 in
03:34 41.9 °F 39.2 °F 29.99 in Calm     90% 0.00 in
03:39 41.7 °F 39.0 °F 29.99 in Calm     90% 0.00 in
03:44 41.6 °F 38.9 °F 29.99 in Calm     90% 0.00 in
03:49 41.5 °F 38.8 °F 29.99 in Calm     90% 0.00 in
03:54 41.4 °F 39.0 °F 29.99 in Calm     91% 0.00 in
03:59 41.3 °F 38.9 °F 29.99 in Calm     91% 0.00 in
04:04 41.4 °F 39.0 °F 29.99 in Calm     91% 0.00 in
04:09 41.3 °F 38.9 °F 29.99 in Calm     91% 0.00 in
04:14 41.3 °F 38.9 °F 29.99 in Calm     91% 0.00 in
04:19 41.2 °F 38.8 °F 29.99 in Calm     91% 0.00 in
04:24 41.1 °F 38.7 °F 29.98 in Calm     91% 0.00 in
04:29 41.0 °F 38.6 °F 29.99 in Calm     91% 0.00 in
04:34 40.8 °F 38.4 °F 29.99 in Calm     91% 0.00 in
04:40 41.0 °F 38.9 °F 29.99 in Calm     92% 0.00 in
04:45 41.3 °F 39.2 °F 29.99 in Calm     92% 0.00 in
04:50 41.3 °F 39.2 °F 29.99 in Calm     92% 0.00 in
04:55 41.3 °F 39.2 °F 29.99 in Calm     92% 0.00 in
05:00 41.3 °F 38.9 °F 29.99 in Calm     91% 0.00 in
05:05 41.2 °F 38.8 °F 29.99 in Calm     91% 0.00 in
05:10 41.1 °F 38.7 °F 29.99 in Calm     91% 0.00 in
05:15 41.1 °F 38.7 °F 29.99 in Calm     91% 0.00 in
05:20 41.0 °F 38.6 °F 30.00 in Calm     91% 0.00 in
05:25 40.9 °F 38.5 °F 29.99 in Calm     91% 0.00 in
05:30 40.8 °F 38.4 °F 30.00 in Calm     91% 0.00 in
05:35 40.6 °F 38.2 °F 30.00 in Calm     91% 0.00 in
05:40 40.6 °F 38.2 °F 30.00 in Calm     91% 0.00 in
05:45 40.5 °F 38.1 °F 30.00 in Calm     91% 0.00 in
05:51 40.5 °F 38.1 °F 30.00 in Calm     91% 0.00 in
05:56 40.4 °F 38.0 °F 30.00 in Calm     91% 0.00 in
06:01 40.4 °F 38.0 °F 30.00 in Calm     91% 0.00 in
06:06 40.4 °F 38.0 °F 30.00 in Calm     91% 0.00 in
06:11 40.3 °F 37.9 °F 30.00 in Calm     91% 0.00 in
06:16 40.1 °F 37.7 °F 30.01 in Calm     91% 0.00 in
06:21 39.9 °F 37.5 °F 30.01 in Calm     91% 0.00 in
06:26 40.0 °F 37.9 °F 30.01 in Calm     92% 0.00 in
06:31 39.8 °F 37.4 °F 30.01 in Calm     91% 0.00 in
06:36 39.7 °F 37.6 °F 30.01 in Calm     92% 0.00 in
06:41 39.6 °F 37.5 °F 30.01 in Calm     92% 0.00 in
06:46 39.5 °F 37.4 °F 30.01 in Calm     92% 0.00 in
06:51 39.5 °F 37.4 °F 30.01 in Calm     92% 0.00 in
06:56 39.4 °F 37.3 °F 30.01 in Calm     92% 0.00 in
07:01 39.3 °F 37.2 °F 30.01 in Calm     92% 0.00 in
07:06 39.2 °F 37.1 °F 30.02 in Calm     92% 0.00 in
07:11 39.1 °F 37.0 °F 30.02 in Calm     92% 0.00 in
07:16 39.1 °F 37.0 °F 30.02 in Calm     92% 0.00 in
07:21 39.6 °F 38.0 °F 30.02 in Calm     94% 0.00 in
07:26 40.4 °F 38.8 °F 30.02 in Calm     94% 0.00 in
07:31 41.0 °F 39.4 °F 30.02 in Calm     94% 0.00 in
07:36 41.6 °F 39.7 °F 30.02 in Calm     93% 0.00 in
07:41 42.2 °F 40.0 °F 30.02 in Calm     92% 0.00 in
07:43 42.4 °F 40.0 °F 30.02 in North 1.1 mph   91% 0.00 in
07:48 42.9 °F 40.2 °F 30.02 in Calm     90% 0.00 in
07:53 43.3 °F 40.6 °F 30.02 in Calm     90% 0.00 in
07:58 43.7 °F 40.7 °F 30.02 in Calm     89% 0.00 in
08:03 44.1 °F 41.1 °F 30.03 in SE 1.0 mph   89% 0.00 in
08:08 44.4 °F 41.1 °F 30.03 in SE 1.0 mph 1.0 mph 88% 0.00 in
08:13 44.8 °F 41.5 °F 30.03 in West 1.1 mph   88% 0.00 in
08:18 45.2 °F 41.6 °F 30.03 in Calm   0.1 mph 87% 0.00 in
08:23 45.6 °F 41.7 °F 30.03 in SSE 1.1 mph   86% 0.00 in
08:28 45.9 °F 41.9 °F 30.03 in Calm     86% 0.00 in
08:33 46.2 °F 41.9 °F 30.03 in Calm     85% 0.00 in
08:38 46.5 °F 42.2 °F 30.03 in SW 1.1 mph   85% 0.00 in
08:43 46.8 °F 42.5 °F 30.03 in SSW 1.1 mph   85% 0.00 in
08:48 47.1 °F 42.5 °F 30.04 in Calm     84% 0.00 in
08:53 47.4 °F 42.5 °F 30.03 in Calm   0.1 mph 83% 0.00 in
08:58 47.7 °F 42.8 °F 30.04 in SSE 1.1 mph 1.1 mph 83% 0.00 in
09:03 48.0 °F 43.1 °F 30.04 in WSW 1.0 mph 1.0 mph 83% 0.00 in
09:08 48.3 °F 43.4 °F 30.04 in SSW 2.3 mph 2.3 mph 83% 0.00 in
09:13 48.7 °F 43.5 °F 30.04 in Calm   0.3 mph 82% 0.00 in
09:18 49.0 °F 43.7 °F 30.04 in Calm     82% 0.00 in
09:23 49.4 °F 43.8 °F 30.04 in SW 1.1 mph 1.1 mph 81% 0.00 in
09:28 49.8 °F 44.2 °F 30.04 in SSW 1.1 mph   81% 0.00 in
09:33 50.3 °F 44.4 °F 30.04 in SW 1.0 mph 1.0 mph 80% 0.00 in
09:38 50.8 °F 44.9 °F 30.04 in SW 1.0 mph 1.0 mph 80% 0.00 in
09:43 51.2 °F 44.9 °F 30.04 in WSW 1.0 mph   79% 0.00 in
09:48 51.7 °F 45.1 °F 30.05 in SSW 1.1 mph 1.1 mph 78% 0.00 in
09:53 52.0 °F 45.0 °F 30.04 in Calm   0.1 mph 77% 0.00 in
09:58 52.4 °F 45.4 °F 30.05 in Calm     77% 0.00 in
10:03 52.9 °F 45.5 °F 30.04 in South 2.0 mph 2.0 mph 76% 0.00 in
10:08 53.4 °F 45.7 °F 30.05 in SW 1.1 mph   75% 0.00 in
10:13 54.0 °F 45.5 °F 30.05 in SSW 1.1 mph   73% 0.00 in
10:18 54.4 °F 45.6 °F 30.05 in SW 2.3 mph   72% 0.00 in
10:23 54.9 °F 45.7 °F 30.05 in SW 1.1 mph 1.1 mph 71% 0.00 in
10:28 55.2 °F 46.0 °F 30.05 in Calm   0.3 mph 71% 0.00 in
10:33 55.5 °F 45.5 °F 30.05 in SW 2.3 mph 2.3 mph 69% 0.00 in
10:38 55.6 °F 45.2 °F 30.05 in SSW 3.5 mph 3.5 mph 68% 0.00 in
10:44 55.9 °F 46.3 °F 30.04 in SW 1.0 mph 1.0 mph 70% 0.00 in
10:49 56.4 °F 46.4 °F 30.04 in Calm   0.2 mph 69% 0.00 in
10:54 57.0 °F 46.5 °F 30.04 in South 2.3 mph 2.3 mph 68% 0.00 in
10:59 57.4 °F 46.5 °F 30.05 in SW 2.3 mph 2.3 mph 67% 0.00 in
11:04 57.4 °F 46.5 °F 30.04 in SSW 1.1 mph 1.1 mph 67% 0.00 in
11:09 57.8 °F 46.9 °F 30.04 in SW 1.1 mph 1.1 mph 67% 0.00 in
11:14 58.0 °F 46.7 °F 30.04 in WNW 2.3 mph 2.3 mph 66% 0.00 in
11:19 58.5 °F 46.8 °F 30.04 in West 3.5 mph 3.5 mph 65% 0.00 in
11:24 59.1 °F 47.3 °F 30.04 in NW 1.1 mph 1.1 mph 65% 0.00 in
11:29 59.7 °F 46.7 °F 30.04 in SW 1.1 mph   62% 0.00 in
11:34 60.2 °F 47.1 °F 30.03 in SSW 2.3 mph 2.3 mph 62% 0.00 in
11:40 60.8 °F 47.7 °F 30.03 in SSW 1.1 mph 1.1 mph 62% 0.00 in
11:45 61.3 °F 47.3 °F 30.03 in SW 1.1 mph   60% 0.00 in
11:50 61.7 °F 47.7 °F 30.03 in WSW 2.3 mph 2.3 mph 60% 0.00 in
11:55 62.0 °F 47.0 °F 30.03 in North 3.5 mph 3.5 mph 58% 0.00 in
12:00 62.2 °F 46.8 °F 30.03 in West 1.1 mph 1.1 mph 57% 0.00 in
12:05 62.6 °F 48.1 °F 30.02 in WSW 1.1 mph 1.1 mph 59% 0.00 in
12:10 63.1 °F 47.6 °F 30.02 in WNW 1.1 mph 1.1 mph 57% 0.00 in
12:15 63.7 °F 48.2 °F 30.02 in NW 1.1 mph 1.1 mph 57% 0.00 in
12:20 64.4 °F 47.4 °F 30.02 in North 2.3 mph 2.3 mph 54% 0.00 in
12:25 64.9 °F 47.9 °F 30.02 in WSW 1.1 mph 1.1 mph 54% 0.00 in
12:30 64.9 °F 47.4 °F 30.02 in SSW 1.1 mph 1.1 mph 53% 0.00 in
12:35 65.4 °F 47.3 °F 30.02 in SSW 2.3 mph 2.3 mph 52% 0.00 in
12:40 65.7 °F 46.5 °F 30.01 in NNW 1.1 mph 1.1 mph 50% 0.00 in
12:45 65.0 °F 46.4 °F 30.01 in ESE 1.1 mph   51% 0.00 in
12:50 65.2 °F 46.6 °F 30.01 in West 2.3 mph 2.3 mph 51% 0.00 in
12:55 65.7 °F 47.6 °F 30.01 in West 2.3 mph 2.3 mph 52% 0.00 in
13:00 66.3 °F 47.1 °F 30.00 in SW 1.1 mph 1.1 mph 50% 0.00 in
13:05 66.4 °F 46.7 °F 30.00 in West 2.3 mph 2.3 mph 49% 0.00 in
13:10 67.0 °F 47.7 °F 30.00 in SW 1.1 mph 1.1 mph 50% 0.00 in
13:15 67.6 °F 47.8 °F 30.00 in South 3.5 mph 3.5 mph 49% 0.00 in
13:17 67.7 °F 47.8 °F 30.00 in North 3.5 mph 3.5 mph 49% 0.00 in
13:22 67.4 °F 47.0 °F 30.00 in West 3.5 mph 3.5 mph 48% 0.00 in
13:27 67.7 °F 47.3 °F 30.00 in WNW 1.1 mph 1.1 mph 48% 0.00 in
13:32 68.1 °F 46.5 °F 29.99 in WSW 1.1 mph 1.1 mph 46% 0.00 in
13:37 68.7 °F 45.9 °F 29.99 in Calm     44% 0.00 in
13:43 69.8 °F 46.3 °F 29.99 in South 1.1 mph   43% 0.00 in
13:48 70.4 °F 46.2 °F 29.99 in South 1.1 mph 1.1 mph 42% 0.00 in
13:53 70.3 °F 45.5 °F 29.99 in SSE 1.1 mph 1.1 mph 41% 0.00 in
13:58 70.7 °F 45.8 °F 29.98 in Calm     41% 0.00 in
14:03 71.1 °F 45.5 °F 29.98 in North 1.1 mph 1.1 mph 40% 0.00 in
14:08 70.8 °F 45.3 °F 29.98 in West 1.1 mph 1.1 mph 40% 0.00 in
14:13 70.5 °F 44.3 °F 29.97 in South 2.3 mph 2.3 mph 39% 0.00 in
14:18 70.5 °F 44.3 °F 29.97 in WSW 2.3 mph 2.3 mph 39% 0.00 in
14:23 70.4 °F 44.3 °F 29.97 in SW 1.1 mph 1.1 mph 39% 0.00 in
14:28 70.7 °F 45.2 °F 29.97 in WNW 2.3 mph 2.3 mph 40% 0.00 in
14:33 71.3 °F 44.4 °F 29.97 in NNW 3.5 mph 3.5 mph 38% 0.00 in
14:38 70.5 °F 45.0 °F 29.97 in NE 1.1 mph 1.1 mph 40% 0.00 in
14:43 70.5 °F 43.7 °F 29.97 in West 3.5 mph 3.5 mph 38% 0.00 in
14:48 70.9 °F 44.0 °F 29.96 in SW 2.3 mph 2.3 mph 38% 0.00 in
14:53 71.2 °F 45.0 °F 29.96 in North 5.0 mph 5.0 mph 39% 0.00 in
14:58 71.1 °F 45.5 °F 29.96 in WNW 2.3 mph 2.3 mph 40% 0.00 in
15:03 70.7 °F 45.2 °F 29.96 in Calm     40% 0.00 in
15:08 70.9 °F 46.0 °F 29.96 in SSW 1.1 mph 1.1 mph 41% 0.00 in
15:13 71.5 °F 45.9 °F 29.96 in WSW 2.3 mph 2.3 mph 40% 0.00 in
15:18 71.9 °F 44.9 °F 29.96 in WSW 2.3 mph 2.3 mph 38% 0.00 in
15:23 72.2 °F 45.9 °F 29.96 in WNW 2.3 mph 2.3 mph 39% 0.00 in
15:28 72.8 °F 44.3 °F 29.95 in SSW 1.1 mph 1.1 mph 36% 0.00 in
15:33 73.1 °F 43.8 °F 29.96 in SSW 2.3 mph 2.3 mph 35% 0.00 in
15:38 72.7 °F 42.7 °F 29.95 in WSW 2.0 mph 2.0 mph 34% 0.00 in
15:43 72.0 °F 43.6 °F 29.95 in Calm   0.1 mph 36% 0.00 in
15:48 72.5 °F 44.0 °F 29.95 in Calm   0.2 mph 36% 0.00 in
15:53 72.7 °F 44.9 °F 29.95 in SW 2.3 mph 2.3 mph 37% 0.00 in
15:58 72.6 °F 43.4 °F 29.95 in North 3.5 mph 3.5 mph 35% 0.00 in
16:03 72.0 °F 42.8 °F 29.95 in NNE 3.5 mph 3.5 mph 35% 0.00 in
16:08 71.7 °F 43.3 °F 29.95 in NW 1.0 mph   36% 0.00 in
16:13 72.2 °F 43.0 °F 29.95 in Calm     35% 0.00 in
16:18 72.3 °F 43.1 °F 29.95 in NW 2.3 mph 2.3 mph 35% 0.00 in
16:23 72.2 °F 43.8 °F 29.94 in Calm   0.5 mph 36% 0.00 in
16:28 72.6 °F 43.4 °F 29.94 in SW 1.0 mph 1.0 mph 35% 0.00 in
16:33 72.7 °F 42.7 °F 29.94 in NW 1.0 mph   34% 0.00 in
16:38 73.6 °F 42.7 °F 29.94 in SSW 2.3 mph 2.3 mph 33% 0.00 in
16:43 73.9 °F 42.2 °F 29.94 in South 1.1 mph   32% 0.00 in
16:48 73.6 °F 41.9 °F 29.94 in SW 2.0 mph 2.0 mph 32% 0.00 in
16:53 73.3 °F 41.6 °F 29.94 in WSW 1.1 mph 1.1 mph 32% 0.00 in
16:58 73.4 °F 42.5 °F 29.94 in WSW 1.1 mph 1.1 mph 33% 0.00 in
17:03 73.2 °F 41.6 °F 29.94 in SW 2.3 mph 2.3 mph 32% 0.00 in
17:09 73.0 °F 42.2 °F 29.94 in SW 1.1 mph   33% 0.00 in
17:14 73.2 °F 41.6 °F 29.94 in SSW 1.1 mph 1.1 mph 32% 0.00 in
17:19 73.3 °F 42.4 °F 29.94 in WNW 2.0 mph 2.0 mph 33% 0.00 in
17:24 73.8 °F 42.9 °F 29.94 in Calm     33% 0.00 in
17:29 73.4 °F 41.7 °F 29.93 in South 3.5 mph 3.5 mph 32% 0.00 in
17:34 72.6 °F 41.8 °F 29.93 in WSW 1.0 mph 1.0 mph 33% 0.00 in
17:39 72.0 °F 42.1 °F 29.93 in West 2.3 mph 2.3 mph 34% 0.00 in
17:42 71.9 °F 42.8 °F 29.93 in WNW 1.0 mph 1.0 mph 35% 0.00 in
17:47 71.6 °F 42.5 °F 29.93 in NW 1.1 mph   35% 0.00 in
17:52 71.5 °F 43.1 °F 29.93 in SW 1.0 mph   36% 0.00 in
17:57 71.5 °F 42.4 °F 29.93 in WSW 1.1 mph 1.1 mph 35% 0.00 in
18:02 70.8 °F 43.2 °F 29.93 in Calm     37% 0.00 in
18:07 69.7 °F 42.3 °F 29.93 in WSW 1.1 mph   37% 0.00 in
18:12 69.1 °F 43.1 °F 29.93 in WSW 1.1 mph 1.1 mph 39% 0.00 in
18:17 68.4 °F 43.1 °F 29.93 in Calm     40% 0.00 in
18:22 67.9 °F 42.7 °F 29.93 in SW 1.1 mph   40% 0.00 in
18:27 67.5 °F 42.3 °F 29.93 in Calm     40% 0.00 in
18:33 67.0 °F 42.5 °F 29.93 in Calm     41% 0.00 in
18:38 66.6 °F 43.4 °F 29.93 in Calm     43% 0.00 in
18:43 66.0 °F 42.9 °F 29.93 in Calm     43% 0.00 in
18:48 65.4 °F 42.9 °F 29.94 in Calm     44% 0.00 in
18:53 64.8 °F 42.9 °F 29.94 in Calm     45% 0.00 in
18:58 64.3 °F 42.5 °F 29.94 in Calm     45% 0.00 in
19:03 63.8 °F 42.6 °F 29.94 in Calm     46% 0.00 in
19:08 63.3 °F 42.7 °F 29.94 in Calm     47% 0.00 in
19:13 62.8 °F 42.8 °F 29.94 in Calm     48% 0.00 in
19:18 62.4 °F 42.4 °F 29.94 in Calm     48% 0.00 in
19:23 62.2 °F 42.8 °F 29.94 in Calm     49% 0.00 in
19:28 61.8 °F 43.5 °F 29.94 in Calm     51% 0.00 in
19:33 61.3 °F 43.0 °F 29.94 in Calm     51% 0.00 in
19:38 60.9 °F 43.1 °F 29.94 in Calm     52% 0.00 in
19:43 60.5 °F 43.3 °F 29.94 in Calm     53% 0.00 in
19:48 60.2 °F 43.0 °F 29.94 in Calm     53% 0.00 in
19:53 60.0 °F 43.3 °F 29.95 in Calm     54% 0.00 in
19:58 59.8 °F 43.1 °F 29.94 in Calm     54% 0.00 in
20:03 59.8 °F 43.1 °F 29.95 in Calm     54% 0.00 in
20:08 59.7 °F 43.0 °F 29.95 in Calm     54% 0.00 in
20:13 59.7 °F 43.5 °F 29.95 in Calm     55% 0.00 in
20:18 59.4 °F 43.7 °F 29.95 in Calm     56% 0.00 in
20:23 59.2 °F 43.5 °F 29.95 in ENE 1.1 mph 1.1 mph 56% 0.00 in
20:28 59.3 °F 43.1 °F 29.95 in Calm     55% 0.00 in
20:33 59.0 °F 42.8 °F 29.96 in Calm     55% 0.00 in
20:38 58.7 °F 43.0 °F 29.96 in Calm     56% 0.00 in
20:43 58.2 °F 42.6 °F 29.96 in Calm     56% 0.00 in
20:48 58.3 °F 42.7 °F 29.97 in ESE 2.0 mph 2.0 mph 56% 0.00 in
20:53 59.2 °F 42.6 °F 29.97 in West 3.5 mph 3.5 mph 54% 0.00 in
20:58 59.5 °F 41.9 °F 29.97 in Calm     52% 0.00 in
21:00 59.6 °F 42.4 °F 29.97 in Calm     53% 0.00 in
21:01 59.6 °F 42.4 °F 29.97 in Calm   0.1 mph 53% 0.00 in
21:06 59.4 °F 42.3 °F 29.98 in Calm     53% 0.00 in
21:11 59.2 °F 42.1 °F 29.98 in NNW 1.1 mph   53% 0.00 in
21:16 59.1 °F 42.5 °F 29.98 in Calm     54% 0.00 in
21:21 59.2 °F 41.6 °F 29.98 in East 3.5 mph 3.5 mph 52% 0.00 in
21:26 59.3 °F 41.7 °F 29.99 in Calm     52% 0.00 in
21:31 59.1 °F 41.0 °F 29.99 in Calm   0.3 mph 51% 0.00 in
21:36 59.0 °F 40.4 °F 29.99 in Calm     50% 0.00 in
21:41 58.7 °F 40.6 °F 29.99 in Calm     51% 0.00 in
21:46 58.4 °F 40.8 °F 30.00 in Calm     52% 0.00 in
21:51 58.0 °F 40.5 °F 30.00 in Calm     52% 0.00 in
21:56 57.6 °F 40.6 °F 30.00 in Calm     53% 0.00 in
22:01 57.1 °F 41.1 °F 30.00 in Calm     55% 0.00 in
22:06 56.5 °F 41.4 °F 30.00 in Calm     57% 0.00 in
22:11 55.9 °F 40.9 °F 30.00 in Calm     57% 0.00 in
22:16 55.4 °F 40.9 °F 30.00 in Calm     58% 0.00 in
22:21 55.2 °F 40.7 °F 30.01 in ESE 1.1 mph   58% 0.00 in
22:26 55.2 °F 40.7 °F 30.01 in Calm     58% 0.00 in
22:31 55.0 °F 40.9 °F 30.01 in Calm     59% 0.00 in
22:36 54.7 °F 41.1 °F 30.01 in Calm     60% 0.00 in
22:41 54.3 °F 41.1 °F 30.01 in Calm     61% 0.00 in
22:46 53.9 °F 40.8 °F 30.01 in Calm     61% 0.00 in
22:51 53.7 °F 41.0 °F 30.01 in Calm     62% 0.00 in
22:56 53.3 °F 40.6 °F 30.02 in Calm     62% 0.00 in
23:01 52.9 °F 41.0 °F 30.02 in Calm     64% 0.00 in
23:06 52.5 °F 40.7 °F 30.01 in Calm     64% 0.00 in
23:11 52.2 °F 40.8 °F 30.01 in Calm     65% 0.00 in
23:16 51.9 °F 40.5 °F 30.01 in Calm     65% 0.00 in
23:21 51.5 °F 40.9 °F 30.02 in Calm     67% 0.00 in
23:26 51.2 °F 40.6 °F 30.02 in Calm     67% 0.00 in
23:32 50.8 °F 40.6 °F 30.02 in Calm     68% 0.00 in
23:37 50.4 °F 40.6 °F 30.02 in Calm     69% 0.00 in
23:42 50.0 °F 40.6 °F 30.02 in Calm     70% 0.00 in
23:47 49.9 °F 40.9 °F 30.02 in Calm     71% 0.00 in
23:52 49.5 °F 40.5 °F 30.02 in Calm     71% 0.00 in
23:57 49.2 °F 40.6 °F 30.02 in Calm     72% 0.00 in
Compliments of Weather Underground